createdAt,value
2023-03-11T00:40:57.422Z,28.23
2023-03-11T00:46:21.618Z,32.70
2023-03-11T00:51:45.119Z,35.83
2023-03-11T00:57:09.831Z,42.25
2023-03-11T01:02:34.943Z,37.03
2023-03-11T01:07:58.124Z,29.92
2023-03-11T01:13:24.876Z,47.40
2023-03-11T01:18:48.042Z,38.93
2023-03-11T01:24:11.202Z,35.55
2023-03-11T01:29:36.126Z,34.55
2023-03-11T01:34:59.868Z,46.03
2023-03-11T01:40:29.894Z,35.55
2023-03-11T01:46:14.808Z,42.50
2023-03-11T01:51:44.714Z,38.42
2023-03-11T01:57:14.918Z,41.70
2023-03-11T02:02:47.319Z,37.47
2023-03-11T02:08:10.997Z,32.28
2023-03-11T02:13:36.354Z,36.70
2023-03-11T02:19:13.295Z,31.67
2023-03-11T02:24:46.586Z,30.88
2023-03-11T02:30:15.271Z,32.15
2023-03-11T02:35:40.642Z,24.27
2023-03-11T02:41:06.453Z,25.33
2023-03-11T02:46:31.696Z,23.15
2023-03-11T02:51:58.330Z,26.63
2023-03-11T02:57:21.631Z,20.30
2023-03-11T03:02:46.930Z,18.65
2023-03-11T03:08:10.376Z,18.43
2023-03-11T03:13:35.224Z,16.98
2023-03-11T03:18:59.864Z,15.18
2023-03-11T03:24:23.204Z,13.05
2023-03-11T03:29:46.370Z,15.52
2023-03-11T03:35:11.917Z,14.93
2023-03-11T03:41:01.198Z,14.20
2023-03-11T03:46:24.780Z,14.05
2023-03-11T03:51:53.687Z,13.75
2023-03-11T03:57:25.552Z,12.93
2023-03-11T04:02:48.960Z,12.27
2023-03-11T04:08:23.150Z,10.93
2023-03-11T04:13:46.642Z,11.57
2023-03-11T04:19:10.298Z,10.45
2023-03-11T04:24:35.387Z,10.02
2023-03-11T04:29:59.282Z,11.83
2023-03-11T04:35:23.210Z,11.40
2023-03-11T04:40:48.053Z,11.38
2023-03-11T04:46:11.597Z,13.75
2023-03-11T04:51:37.147Z,13.50
2023-03-11T04:57:02.785Z,10.60
2023-03-11T05:02:26.092Z,12.98
2023-03-11T05:07:55.005Z,17.25
2023-03-11T05:13:21.839Z,15.13
2023-03-11T05:18:47.454Z,18.55
2023-03-11T05:24:12.477Z,18.40
2023-03-11T05:29:37.093Z,18.52
2023-03-11T05:35:02.416Z,19.80
2023-03-11T05:40:25.848Z,16.95
2023-03-11T05:45:50.706Z,16.58
2023-03-11T05:51:14.452Z,16.47
2023-03-11T05:56:39.598Z,14.30
2023-03-11T06:02:04.988Z,14.48
2023-03-11T06:07:28.152Z,17.10
2023-03-11T06:12:52.674Z,17.20
2023-03-11T06:18:22.015Z,16.50
2023-03-11T06:23:45.352Z,14.57
2023-03-11T06:29:13.023Z,21.20
2023-03-11T06:34:38.022Z,19.25
2023-03-11T06:40:04.608Z,19.00
2023-03-11T06:45:28.550Z,17.50
2023-03-11T06:50:57.130Z,19.88
2023-03-11T06:56:23.162Z,21.92
2023-03-11T07:01:59.776Z,19.85
2023-03-11T07:07:25.138Z,19.58
2023-03-11T07:12:48.417Z,15.07
2023-03-11T07:18:11.915Z,17.55
2023-03-11T07:23:37.749Z,27.17
2023-03-11T07:29:01.592Z,32.90
2023-03-11T07:34:24.633Z,22.90
2023-03-11T07:39:49.309Z,23.23
2023-03-11T07:45:12.673Z,25.17
2023-03-11T07:50:36.016Z,23.65
2023-03-11T07:56:02.091Z,18.23
2023-03-11T08:01:31.658Z,24.98
2023-03-11T08:06:54.800Z,24.53
2023-03-11T08:12:20.106Z,16.48
2023-03-11T08:17:43.260Z,19.30
2023-03-11T08:23:06.689Z,21.88
2023-03-11T08:28:34.714Z,23.45
2023-03-11T08:34:00.901Z,27.17
2023-03-11T08:39:40.557Z,26.25
2023-03-11T08:45:07.245Z,59.85
2023-03-11T08:50:30.589Z,20.65
2023-03-11T08:55:54.159Z,21.65
2023-03-11T09:01:19.403Z,28.77
2023-03-11T09:06:44.246Z,21.02
2023-03-11T09:12:54.360Z,17.23
2023-03-11T09:24:34.254Z,15.15
2023-03-11T09:29:57.614Z,15.67
2023-03-11T09:35:22.385Z,25.50
2023-03-11T09:40:59.798Z,14.73
2023-03-11T09:53:46.907Z,12.15
2023-03-11T10:47:29.904Z,18.70
2023-03-11T11:00:30.826Z,10.85
2023-03-11T11:06:08.014Z,10.23
2023-03-11T11:11:31.046Z,29.20
2023-03-11T11:16:54.230Z,13.95
2023-03-11T11:22:22.371Z,27.45
2023-03-11T11:27:56.177Z,13.68
2023-03-11T11:33:26.964Z,13.73
2023-03-11T11:38:53.915Z,8.18
2023-03-11T11:44:22.839Z,9.25
2023-03-11T11:49:54.450Z,15.73
2023-03-11T11:55:25.782Z,13.05
2023-03-11T12:01:10.328Z,7.70
2023-03-11T12:06:41.502Z,8.90
2023-03-11T12:12:22.693Z,9.48
2023-03-11T12:17:51.184Z,10.02
2023-03-11T12:23:24.814Z,6.68
2023-03-11T12:28:57.607Z,6.27
2023-03-11T12:34:23.425Z,8.15
2023-03-11T12:39:46.470Z,11.25
2023-03-11T12:45:50.693Z,8.55
2023-03-11T12:51:39.495Z,15.10
2023-03-11T12:57:08.151Z,11.67
2023-03-11T13:03:14.351Z,13.45
2023-03-11T13:08:46.295Z,9.23
2023-03-11T13:14:29.103Z,13.32
2023-03-11T13:19:56.448Z,7.05
2023-03-11T13:25:35.173Z,8.90
2023-03-11T13:31:22.525Z,12.20
2023-03-11T13:37:16.940Z,8.40
2023-03-11T13:42:45.332Z,10.43
2023-03-11T13:48:18.666Z,9.65
2023-03-11T13:53:51.270Z,10.60
2023-03-11T13:59:22.148Z,8.95
2023-03-11T14:04:53.012Z,9.85
2023-03-11T14:10:30.961Z,12.65
2023-03-11T14:16:03.384Z,10.05
2023-03-11T14:21:27.171Z,9.67
2023-03-11T14:26:56.259Z,11.90
2023-03-11T14:32:28.477Z,10.95
2023-03-11T14:37:51.888Z,10.38
2023-03-11T14:43:16.723Z,20.95
2023-03-11T14:48:43.367Z,15.03
2023-03-11T14:54:18.005Z,18.42
2023-03-11T14:59:48.921Z,25.25
2023-03-11T15:05:22.798Z,11.70
2023-03-11T15:11:14.245Z,14.55
2023-03-11T15:16:39.021Z,13.93
2023-03-11T15:22:24.154Z,23.83
2023-03-11T15:27:47.645Z,31.38
2023-03-11T15:33:30.699Z,14.65
2023-03-11T15:39:13.392Z,36.20
2023-03-11T15:44:41.221Z,26.70
2023-03-11T15:50:24.905Z,24.40
2023-03-11T15:55:49.599Z,41.65
2023-03-11T16:01:13.014Z,23.00
2023-03-11T16:06:37.486Z,12.23
2023-03-11T16:12:02.204Z,21.07
2023-03-11T16:17:25.229Z,42.60
2023-03-11T16:22:52.734Z,19.20
2023-03-11T16:28:17.435Z,34.00
2023-03-11T16:33:40.553Z,20.95
2023-03-11T16:39:05.300Z,26.10
2023-03-11T16:44:28.383Z,26.20
2023-03-11T16:49:51.925Z,24.95
2023-03-11T16:55:16.781Z,18.88
2023-03-11T17:00:39.746Z,22.52
2023-03-11T17:06:04.138Z,30.30
2023-03-11T17:11:28.864Z,19.15
2023-03-11T17:16:52.260Z,28.67
2023-03-11T17:22:16.158Z,21.48
2023-03-11T17:27:40.926Z,18.23
2023-03-11T17:33:04.424Z,21.97
2023-03-11T17:38:27.863Z,17.80
2023-03-11T17:43:52.763Z,20.45
2023-03-11T17:49:16.182Z,21.95
2023-03-11T17:54:39.362Z,14.02
2023-03-11T18:00:05.642Z,15.87
2023-03-11T18:05:28.933Z,14.13
2023-03-11T18:10:53.192Z,18.58
2023-03-11T18:16:20.700Z,18.50
2023-03-11T18:21:44.164Z,20.27
2023-03-11T18:27:07.440Z,16.77
2023-03-11T18:32:32.319Z,21.65
2023-03-11T18:37:55.712Z,15.73
2023-03-11T18:43:19.133Z,13.35
2023-03-11T18:48:43.838Z,16.35
2023-03-11T18:54:06.879Z,16.83
2023-03-11T18:59:30.172Z,18.15
2023-03-11T19:04:54.926Z,21.55
2023-03-11T19:10:18.473Z,16.70
2023-03-11T19:15:42.094Z,16.52
2023-03-11T19:21:08.608Z,17.43
2023-03-11T19:26:44.214Z,17.73
2023-03-11T19:32:08.813Z,14.88
2023-03-11T19:37:33.990Z,16.10
2023-03-11T19:42:57.245Z,16.23
2023-03-11T19:48:20.480Z,15.10
2023-03-11T19:53:45.685Z,16.98
2023-03-11T19:59:09.366Z,13.27
2023-03-11T20:04:33.231Z,16.52
2023-03-11T20:09:57.826Z,14.73
2023-03-11T20:15:21.390Z,17.47
2023-03-11T20:20:44.882Z,14.93
2023-03-11T20:26:12.838Z,15.32
2023-03-11T20:31:36.700Z,21.73
2023-03-11T20:36:59.828Z,21.90
2023-03-11T20:42:24.655Z,18.10
2023-03-11T20:47:48.022Z,13.63
2023-03-11T20:53:11.157Z,15.23
2023-03-11T20:58:35.784Z,14.95
2023-03-11T21:04:03.316Z,9.63
2023-03-11T21:09:26.897Z,10.37
2023-03-11T21:14:51.759Z,12.77
2023-03-11T21:20:15.071Z,14.65
2023-03-11T21:25:38.572Z,13.32
2023-03-11T21:31:07.217Z,9.88
2023-03-11T21:36:31.100Z,13.50
2023-03-11T21:41:54.389Z,15.82
2023-03-11T21:47:19.662Z,13.15
2023-03-11T21:52:42.742Z,10.95
2023-03-11T21:58:05.928Z,16.70
2023-03-11T22:03:30.593Z,9.57
2023-03-11T22:08:54.053Z,10.00
2023-03-11T22:14:17.439Z,12.60
2023-03-11T22:19:42.115Z,11.63
2023-03-11T22:25:06.098Z,9.07
2023-03-11T22:30:30.640Z,10.97
2023-03-11T22:35:57.507Z,13.43
2023-03-11T22:41:20.499Z,12.18
2023-03-11T22:46:43.619Z,15.68
2023-03-11T22:52:08.420Z,13.13
2023-03-11T22:57:31.658Z,13.00
2023-03-11T23:02:56.442Z,14.68
2023-03-11T23:08:21.482Z,13.90
2023-03-11T23:13:45.096Z,14.63
2023-03-11T23:19:08.826Z,17.25
2023-03-11T23:24:33.232Z,12.60
2023-03-11T23:29:56.177Z,14.60
2023-03-11T23:35:19.743Z,12.75
2023-03-11T23:40:44.136Z,11.82
2023-03-11T23:46:07.997Z,13.55
2023-03-11T23:51:31.208Z,13.63
2023-03-11T23:56:55.895Z,16.27
